Latest Weather Observations for Canberra

IDN60901

Issued at 2:35 pm EST Wednesday 24 September 2014 (issued every 10 minutes, with the page automatically refreshed every 10 minutes)

About weather observations | Map of Canberra area stations | Latest observations for Canberra area | Other Formats
Station Details ID: 070351 Name: CANBERRA AIRPORT Lat: -35.31 Lon: 149.20 Height: 577.05 m
Data from the previous 72 hours. | See also: Recent months at Canberra
Date/Time
EST
Tmp

°C
App
Tmp
°C
Dew
Point
°C
Rel
Hum
%
Delta-T

°C
Wind Press
QNH
hPa
Press
MSL
hPa
Rain
since
9 am
mm
Dir
 
Spd
km/h
Gust
km/h
Spd
kts
Gust
kts
24/02:30pm 19.1 15.1 10.4 57 4.8 NNW 22 28 12 15 1018.1 - 0.0
24/02:00pm 18.1 15.2 9.5 57 4.7 NW 15 22 8 12 1018.8 - 0.0
24/01:30pm 18.1 15.1 9.2 56 4.8 NNW 15 26 8 14 1019.4 - 0.0
24/01:00pm 16.9 12.0 8.6 58 4.4 N 24 32 13 17 1019.9 - 0.0
24/12:30pm 16.7 11.7 7.9 56 4.6 NNW 24 33 13 18 1020.3 - 0.0
24/12:00pm 18.5 12.7 9.6 56 4.8 NNW 30 35 16 19 1020.6 1020.9 0.0
24/11:30am 17.1 10.3 7.5 53 5.0 NW 33 44 18 24 1021.3 - 0.0
24/11:18am 17.7 11.8 7.4 51 5.3 NW 28 48 15 26 1021.5 - 0.0
24/11:02am 17.1 10.8 5.7 47 5.7 NNW 28 37 15 20 1021.7 - 0.0
24/10:30am 17.2 14.0 7.0 51 5.2 WNW 13 17 7 9 1022.1 - 0.0
24/10:00am 15.5 13.5 7.3 58 4.2 WSW 7 11 4 6 1022.3 - 0.0
24/09:30am 14.9 12.5 7.0 59 4.0 SW 9 13 5 7 1022.4 - 0.0
24/09:00am 13.5 11.5 7.3 66 3.1 NNW 7 11 4 6 1022.8 1023.2 0.0
24/08:30am 12.4 11.1 7.7 73 2.4 N 4 7 2 4 1022.8 - 0.0
24/08:00am 10.7 8.8 6.6 76 2.0 ESE 6 9 3 5 1022.8 - 0.0
24/07:30am 8.2 7.0 6.3 88 0.9 E 2 7 1 4 1023.0 - 0.0
24/07:00am 6.7 5.0 6.1 96 0.3 NNE 4 7 2 4 1023.0 - 0.0
24/06:30am 4.1 1.4 3.7 97 0.2 NNE 7 7 4 4 1023.1 - 0.0
24/06:00am 3.1 0.1 2.2 94 0.4 NNW 7 7 4 4 1023.0 1023.3 0.0
24/05:30am 3.2 1.6 2.5 95 0.3 CALM 0 0 0 0 1022.7 - 0.0
24/05:00am 3.6 2.1 3.0 96 0.3 CALM 0 6 0 3 1022.7 - 0.0
24/04:30am 3.7 1.1 3.1 96 0.3 N 6 7 3 4 1022.7 - 0.0
24/04:00am 2.6 0.0 1.1 90 0.6 NE 4 9 2 5 1022.7 - 0.0
24/03:30am 4.3 1.3 4.0 98 0.1 SE 9 11 5 6 1023.0 - 0.0
24/03:00am 3.9 2.4 2.9 93 0.4 CALM 0 0 0 0 1023.4 1023.7 0.0
24/02:30am 4.6 2.1 4.0 96 0.3 NE 6 7 3 4 1023.7 - 0.0
24/02:00am 4.0 2.4 2.4 89 0.7 NW 0 0 0 0 1023.9 - 0.0
24/01:30am 5.6 3.1 4.7 94 0.4 E 7 11 4 6 1024.2 - 0.0
24/01:00am 5.6 3.0 4.1 90 0.7 NNW 7 9 4 5 1024.5 - 0.0
24/12:30am 7.1 4.7 5.4 89 0.8 SSW 7 9 4 5 1024.1 - 0.0
24/12:00am 7.9 5.6 5.5 85 1.1 SW 7 9 4 5 1024.3 1024.7 0.0
 
Date/Time
EST
Tmp

°C
App
Tmp
°C
Dew
Point
°C
Rel
Hum
%
Delta-T

°C
Wind Press
QNH
hPa
Press
MSL
hPa
Rain
since
9 am
mm
Dir
 
Spd
km/h
Gust
km/h
Spd
kts
Gust
kts
23/11:30pm 7.6 5.7 5.1 84 1.1 E 4 9 2 5 1024.4 - 0.0
23/11:00pm 9.3 7.5 7.1 86 1.1 ESE 6 11 3 6 1024.8 - 0.0
23/10:30pm 9.2 8.3 6.1 81 1.5 CALM 0 6 0 3 1025.3 - 0.0
23/10:00pm 10.0 7.6 7.1 82 1.4 SSE 9 11 5 6 1025.4 - 0.0
23/09:30pm 11.4 9.4 6.9 74 2.2 SE 7 11 4 6 1025.6 - 0.0
23/09:00pm 12.2 10.4 7.3 72 2.4 SSE 6 7 3 4 1025.7 1026.1 0.0
23/08:30pm 13.1 12.5 7.5 69 2.8 CALM 0 0 0 0 1025.6 - 0.0
23/08:00pm 14.6 12.7 9.2 70 2.8 ENE 9 13 5 7 1025.5 - 0.0
23/07:30pm 14.7 12.4 8.9 68 3.0 NE 11 13 6 7 1025.5 - 0.0
23/07:00pm 12.6 7.8 4.8 59 3.7 E 19 22 10 12 1025.5 - 0.0
23/06:30pm 13.8 10.7 3.6 50 4.8 N 9 11 5 6 1025.1 - 0.0
23/06:00pm 17.0 13.8 3.0 39 6.6 N 9 11 5 6 1024.5 1024.9 0.0
23/05:30pm 19.4 15.5 3.6 35 7.7 NE 13 17 7 9 1024.3 - 0.0
23/05:00pm 20.1 16.8 4.6 36 7.7 NNW 11 15 6 8 1024.4 - 0.0
23/04:30pm 21.2 17.8 3.9 32 8.6 N 11 15 6 8 1024.4 - 0.0
23/04:00pm 21.2 17.8 3.9 32 8.6 NNW 11 17 6 9 1024.5 - 0.0
23/03:30pm 21.5 17.5 2.7 29 9.1 N 13 19 7 10 1024.9 - 0.0
23/03:00pm 21.5 18.0 1.2 26 9.5 N 9 19 5 10 1025.1 1025.4 0.0
23/02:30pm 22.0 19.1 2.7 28 9.4 WNW 7 11 4 6 1025.1 - 0.0
23/02:00pm 21.5 18.0 3.7 31 8.8 N 11 19 6 10 1025.2 - 0.0
23/01:30pm 21.5 18.1 4.1 32 8.7 NE 11 20 6 11 1025.7 - 0.0
23/01:00pm 20.7 17.7 3.9 33 8.3 N 9 15 5 8 1026.1 - 0.0
23/12:30pm 20.7 18.3 5.1 36 7.9 N 7 15 4 8 1026.7 - 0.0
23/12:00pm 20.6 18.0 7.6 43 6.9 NE 11 20 6 11 1027.2 1027.6 0.0
23/11:30am 19.5 17.7 7.9 47 6.1 W 7 11 4 6 1027.8 - 0.0
23/11:00am 18.7 16.9 7.8 49 5.7 NW 7 13 4 7 1028.0 - 0.0
23/10:30am 17.0 15.3 8.4 57 4.5 W 7 11 4 6 1028.7 - 0.0
23/10:00am 16.1 14.7 8.8 62 3.9 SSW 6 9 3 5 1029.2 - 0.0
23/09:30am 14.7 13.1 8.6 67 3.2 SW 7 9 4 5 1029.5 - 0.0
23/09:00am 13.0 11.3 8.3 73 2.4 W 7 9 4 5 1029.7 1030.1 0.0
23/08:30am 11.3 9.8 8.3 82 1.5 ENE 6 7 3 4 1029.7 - 0.0
23/08:00am 9.3 7.5 7.9 91 0.7 SE 7 13 4 7 1030.1 - 0.0
23/07:55am 8.7 6.9 7.3 91 0.7 SSE 6 11 3 6 1030.3 - 0.0
23/07:30am 7.4 5.9 6.7 95 0.3 SW 4 7 2 4 1030.1 - 0.0
23/07:00am 5.6 4.6 5.5 99 0.0 CALM 0 0 0 0 1030.3 - 0.0
23/06:30am 3.2 1.7 3.1 99 0.0 CALM 0 0 0 0 1029.9 - 0.0
23/06:00am 2.8 0.1 2.7 99 0.0 NNE 6 7 3 4 1029.6 1030.0 0.0
23/05:30am 2.0 -0.5 1.7 98 0.1 N 4 7 2 4 1029.5 - 0.0
23/05:00am 2.1 -0.9 1.8 98 0.1 NNW 7 9 4 5 1029.5 - 0.0
23/04:30am 2.6 1.0 2.3 98 0.1 CALM 0 0 0 0 1029.3 - 0.0
23/04:00am 3.6 1.8 3.5 99 0.0 ENE 2 6 1 3 1029.3 - 0.0
23/03:59am 3.7 1.9 3.6 99 0.0 ENE 2 6 1 3 1029.3 - 0.0
23/03:53am 3.8 1.3 3.7 99 0.0 E 6 7 3 4 1029.3 - 0.0
23/03:51am 3.8 1.3 3.7 99 0.0 E 6 7 3 4 1029.3 - 0.0
23/03:30am 3.6 1.8 3.3 98 0.1 NE 2 9 1 5 1029.2 - 0.0
23/03:07am 4.1 2.7 3.7 97 0.2 CALM 0 0 0 0 1029.0 - 0.0
23/03:00am 4.1 2.7 3.7 97 0.2 CALM 0 0 0 0 1029.0 1029.4 0.0
23/02:30am 4.6 3.3 4.2 97 0.2 CALM 0 0 0 0 1029.2 - 0.0
23/02:18am 5.1 4.0 5.0 99 0.0 CALM 0 0 0 0 1029.2 - 0.0
23/02:00am 5.4 4.3 5.1 98 0.1 CALM 0 0 0 0 1029.3 - 0.0
23/01:51am 5.6 4.2 5.3 98 0.1 NNE 2 6 1 3 1029.3 - 0.0
23/01:30am 5.3 2.4 4.7 96 0.3 N 9 9 5 5 1029.5 - 0.0
23/01:00am 6.4 4.7 6.1 98 0.1 SE 4 7 2 4 1029.6 - 0.0
23/12:30am 6.7 4.6 6.6 99 0.0 S 7 7 4 4 1029.8 - 0.0
23/12:00am 7.4 5.6 7.1 98 0.1 SSE 6 7 3 4 1029.7 1030.1 0.0
 
Date/Time
EST
Tmp

°C
App
Tmp
°C
Dew
Point
°C
Rel
Hum
%
Delta-T

°C
Wind Press
QNH
hPa
Press
MSL
hPa
Rain
since
9 am
mm
Dir
 
Spd
km/h
Gust
km/h
Spd
kts
Gust
kts
22/11:30pm 7.1 5.3 5.6 90 0.7 ESE 4 7 2 4 1029.8 - 0.0
22/11:00pm 8.2 6.2 7.3 94 0.4 ESE 7 7 4 4 1029.9 - 0.0
22/10:30pm 7.8 6.8 5.8 87 0.9 CALM 0 0 0 0 1029.9 - 0.0
22/10:00pm 8.4 6.5 6.5 88 0.9 SE 6 7 3 4 1029.9 - 0.0
22/09:30pm 9.0 7.6 5.6 79 1.6 W 2 9 1 5 1029.9 - 0.0
22/09:00pm 9.0 7.9 5.0 76 1.8 CALM 0 0 0 0 1029.8 1030.2 0.0
22/08:30pm 9.8 7.5 5.0 72 2.2 NW 6 9 3 5 1029.5 - 0.0
22/08:00pm 11.1 7.5 5.2 67 2.8 ENE 13 13 7 7 1029.3 - 0.0
22/07:30pm 9.1 6.5 4.3 72 2.2 E 7 9 4 5 1028.9 - 0.0
22/07:00pm 11.2 8.7 4.9 65 3.0 NNE 7 7 4 4 1028.6 - 0.0
22/06:30pm 13.2 10.5 5.4 59 3.8 N 9 9 5 5 1028.2 - 0.0
22/06:00pm 14.5 11.5 5.8 56 4.2 NNW 11 13 6 7 1027.9 1028.3 0.0
22/05:30pm 16.6 12.9 6.4 51 5.2 N 15 17 8 9 1027.8 - 0.0
22/05:00pm 18.1 14.3 5.7 44 6.2 N 15 19 8 10 1027.6 - 0.0
22/04:30pm 18.7 14.5 5.5 42 6.6 N 17 22 9 12 1027.4 - 0.0
22/04:00pm 19.1 15.6 5.6 41 6.8 N 13 19 7 10 1027.3 - 0.0
22/03:30pm 19.7 16.7 6.1 41 7.0 NNW 11 15 6 8 1027.4 - 0.0
22/03:00pm 19.8 16.5 6.2 41 6.9 N 13 19 7 10 1027.7 1028.1 0.0
22/02:30pm 19.2 15.1 4.6 38 7.2 N 15 19 8 10 1027.8 - 0.0
22/02:00pm 19.4 16.7 5.8 41 6.9 NNE 9 15 5 8 1028.0 - 0.0
22/01:30pm 18.6 14.4 3.6 37 7.3 N 15 22 8 12 1028.3 - 0.0
22/01:00pm 18.3 14.7 5.2 42 6.5 N 13 20 7 11 1028.8 - 0.0
22/12:30pm 18.4 15.3 7.2 48 5.8 NNW 13 28 7 15 1029.2 - 0.0
22/12:00pm 17.7 15.1 7.7 52 5.2 NNW 11 17 6 9 1029.8 1030.2 0.0
22/11:30am 16.8 13.5 6.6 51 5.2 N 13 20 7 11 1030.4 - 0.0
22/11:00am 16.0 13.6 8.7 62 3.8 NNW 11 15 6 8 1030.8 - 0.0
22/10:30am 14.8 12.4 7.1 60 3.9 N 9 13 5 7 1031.3 - 0.0
22/10:00am 13.8 12.2 7.8 67 3.1 NNE 6 13 3 7 1031.6 - 0.0
22/09:30am 12.8 10.8 7.3 69 2.8 NW 7 11 4 6 1031.7 - 0.0
22/09:00am 11.9 9.8 6.8 71 2.5 WSW 7 9 4 5 1031.7 1032.2 0.0
22/08:51am 12.1 10.4 7.6 74 2.3 S 6 11 3 6 1031.7 - 0.0
22/08:30am 11.0 9.1 6.9 76 2.0 NE 6 9 3 5 1031.9 - 0.0
22/08:00am 10.5 8.7 7.2 80 1.6 N 6 9 3 5 1031.9 - 0.0
22/07:30am 10.1 9.0 6.8 80 1.6 N 2 6 1 3 1031.7 - 0.0
22/07:00am 9.2 7.2 6.3 82 1.4 E 6 9 3 5 1031.4 - 0.0
22/06:30am 8.9 6.7 6.3 84 1.2 E 7 11 4 6 1031.2 - 0.0
22/06:00am 8.7 6.5 6.2 84 1.2 ESE 7 11 4 6 1030.8 1031.2 0.0
22/05:30am 9.0 6.4 6.1 82 1.4 SE 9 13 5 7 1030.6 - 0.0
22/05:00am 8.9 6.7 6.2 83 1.3 E 7 11 4 6 1030.3 - 0.0
22/04:30am 9.1 7.0 6.0 81 1.5 E 6 7 3 4 1030.0 - 0.0
22/04:00am 9.1 6.5 6.2 82 1.4 ENE 9 9 5 5 1029.9 - 0.0
22/03:30am 9.2 7.0 6.1 81 1.5 E 7 13 4 7 1029.9 - 0.0
22/03:00am 8.7 6.2 6.5 86 1.0 SE 9 11 5 6 1030.0 1030.5 0.0
22/02:30am 7.8 5.6 6.1 89 0.8 SSE 7 9 4 5 1030.3 - 0.0
22/02:00am 8.4 5.7 5.7 83 1.3 S 9 11 5 6 1030.3 - 0.0
22/01:30am 9.3 7.3 6.2 81 1.5 SSE 6 7 3 4 1030.5 - 0.0
22/01:00am 9.5 6.9 6.2 80 1.6 E 9 15 5 8 1030.7 - 0.0
22/12:30am 9.4 7.5 6.8 84 1.3 ENE 6 7 3 4 1031.0 - 0.0
22/12:00am 9.4 5.8 6.8 84 1.2 E 15 19 8 10 1031.0 1031.4 0.0
 
Date/Time
EST
Tmp

°C
App
Tmp
°C
Dew
Point
°C
Rel
Hum
%
Delta-T

°C
Wind Press
QNH
hPa
Press
MSL
hPa
Rain
since
9 am
mm
Dir
 
Spd
km/h
Gust
km/h
Spd
kts
Gust
kts
21/11:30pm 9.7 6.5 7.0 83 1.3 E 13 17 7 9 1031.1 - 0.0
21/11:00pm 9.9 7.3 7.7 86 1.1 E 11 13 6 7 1030.8 - 0.0
21/10:39pm 9.8 7.1 7.4 85 1.2 ENE 11 15 6 8 1030.8 - 0.0
21/10:30pm 9.8 7.1 7.2 84 1.3 ENE 11 19 6 10 1030.8 - 0.0
21/10:00pm 9.7 7.3 7.1 84 1.3 ENE 9 13 5 7 1030.6 - 0.0
21/09:30pm 9.7 7.7 7.1 84 1.3 ENE 7 13 4 7 1030.1 - 0.0
21/09:00pm 10.4 8.1 7.3 81 1.5 ENE 9 15 5 8 1029.8 1030.2 0.0
21/08:30pm 11.1 8.5 7.8 80 1.7 N 11 17 6 9 1029.4 - 0.0
21/08:00pm 11.0 7.6 7.5 79 1.7 ESE 15 22 8 12 1029.0 - 0.0
21/07:30pm 12.2 8.0 7.3 72 2.4 E 19 26 10 14 1028.7 - 0.0
21/07:00pm 11.7 8.9 7.0 73 2.3 E 11 19 6 10 1028.0 - 0.0
21/06:30pm 13.3 10.7 6.2 62 3.5 N 9 11 5 6 1027.5 - 0.0
21/06:00pm 14.1 10.8 6.5 60 3.8 NNW 13 15 7 8 1027.1 1027.5 0.0
21/05:30pm 15.6 12.5 7.1 57 4.3 N 13 17 7 9 1026.9 - 0.0
21/05:00pm 16.6 13.7 6.4 51 5.2 N 11 15 6 8 1026.8 - 0.0
21/04:30pm 16.9 13.6 6.4 50 5.3 N 13 19 7 10 1026.7 - 0.0
21/04:00pm 17.3 14.7 6.2 48 5.6 N 9 15 5 8 1026.7 - 0.0
21/03:30pm 17.0 14.4 5.9 48 5.6 NNW 9 15 5 8 1026.8 - 0.0
21/03:00pm 16.8 13.7 5.4 47 5.6 N 11 15 6 8 1026.9 1027.2 0.0

Latest Capital City Observations: Canberra | Sydney | Melbourne | Brisbane | Adelaide | Perth | Hobart | Darwin

Other Formats:

Comma delimited format used in spreadsheet applications
http://www.bom.gov.au/fwo/IDN60903/IDN60903.94926.axf

JavaScript Object Notation format (JSON) in row-major order
http://www.bom.gov.au/fwo/IDN60903/IDN60903.94926.json